sensor_id;sensor_type;location;lat;lon;timestamp;P1;durP1;ratioP1;P2;durP2;ratioP2
23088;SDS011;11713;48.506;8.966;2023-02-01T00:00:09;3.80;;;2.90;;
23088;SDS011;11713;48.506;8.966;2023-02-01T00:02:36;5.90;;;3.13;;
23088;SDS011;11713;48.506;8.966;2023-02-01T00:05:06;4.23;;;2.80;;
23088;SDS011;11713;48.506;8.966;2023-02-01T00:07:34;4.63;;;3.00;;
23088;SDS011;11713;48.506;8.966;2023-02-01T00:10:00;3.70;;;2.77;;
23088;SDS011;11713;48.506;8.966;2023-02-01T00:12:26;3.47;;;2.80;;
23088;SDS011;11713;48.506;8.966;2023-02-01T00:14:52;3.83;;;2.60;;
23088;SDS011;11713;48.506;8.966;2023-02-01T00:17:18;3.93;;;3.20;;
23088;SDS011;11713;48.506;8.966;2023-02-01T00:19:44;3.70;;;2.63;;
23088;SDS011;11713;48.506;8.966;2023-02-01T00:22:09;5.10;;;3.20;;
23088;SDS011;11713;48.506;8.966;2023-02-01T00:24:35;5.27;;;2.90;;
23088;SDS011;11713;48.506;8.966;2023-02-01T00:27:01;4.13;;;2.90;;
23088;SDS011;11713;48.506;8.966;2023-02-01T00:29:27;3.13;;;2.57;;
23088;SDS011;11713;48.506;8.966;2023-02-01T00:31:52;4.80;;;3.40;;
23088;SDS011;11713;48.506;8.966;2023-02-01T00:34:18;4.77;;;3.00;;
23088;SDS011;11713;48.506;8.966;2023-02-01T00:36:45;4.03;;;2.60;;
23088;SDS011;11713;48.506;8.966;2023-02-01T00:39:12;4.93;;;2.80;;
23088;SDS011;11713;48.506;8.966;2023-02-01T00:41:38;2.97;;;2.67;;
23088;SDS011;11713;48.506;8.966;2023-02-01T00:44:05;3.70;;;2.60;;
23088;SDS011;11713;48.506;8.966;2023-02-01T00:46:31;3.40;;;2.70;;
23088;SDS011;11713;48.506;8.966;2023-02-01T00:48:57;3.63;;;2.50;;
23088;SDS011;11713;48.506;8.966;2023-02-01T00:51:24;3.67;;;2.57;;
23088;SDS011;11713;48.506;8.966;2023-02-01T00:53:54;3.40;;;2.73;;
23088;SDS011;11713;48.506;8.966;2023-02-01T00:56:20;4.20;;;2.60;;
23088;SDS011;11713;48.506;8.966;2023-02-01T00:58:46;2.37;;;2.10;;
23088;SDS011;11713;48.506;8.966;2023-02-01T01:01:14;3.07;;;2.50;;
23088;SDS011;11713;48.506;8.966;2023-02-01T01:03:43;3.40;;;2.20;;
23088;SDS011;11713;48.506;8.966;2023-02-01T01:06:12;3.57;;;2.43;;
23088;SDS011;11713;48.506;8.966;2023-02-01T01:08:41;2.80;;;2.30;;
23088;SDS011;11713;48.506;8.966;2023-02-01T01:11:12;2.33;;;2.07;;
23088;SDS011;11713;48.506;8.966;2023-02-01T01:13:40;3.13;;;1.87;;
23088;SDS011;11713;48.506;8.966;2023-02-01T01:16:06;3.20;;;2.00;;
23088;SDS011;11713;48.506;8.966;2023-02-01T01:18:35;2.67;;;2.00;;
23088;SDS011;11713;48.506;8.966;2023-02-01T01:21:04;2.70;;;2.00;;
23088;SDS011;11713;48.506;8.966;2023-02-01T01:23:31;2.43;;;2.00;;
23088;SDS011;11713;48.506;8.966;2023-02-01T01:25:57;2.30;;;2.10;;
23088;SDS011;11713;48.506;8.966;2023-02-01T01:28:23;3.10;;;2.20;;
23088;SDS011;11713;48.506;8.966;2023-02-01T01:30:49;3.57;;;2.20;;
23088;SDS011;11713;48.506;8.966;2023-02-01T01:33:15;3.23;;;1.90;;
23088;SDS011;11713;48.506;8.966;2023-02-01T01:35:41;2.17;;;1.80;;
23088;SDS011;11713;48.506;8.966;2023-02-01T01:38:08;2.87;;;1.90;;
23088;SDS011;11713;48.506;8.966;2023-02-01T01:40:36;2.57;;;1.90;;
23088;SDS011;11713;48.506;8.966;2023-02-01T01:43:03;2.00;;;1.87;;
23088;SDS011;11713;48.506;8.966;2023-02-01T01:45:34;2.10;;;1.70;;
23088;SDS011;11713;48.506;8.966;2023-02-01T01:50:33;2.13;;;1.80;;
23088;SDS011;11713;48.506;8.966;2023-02-01T01:53:05;2.40;;;2.13;;
23088;SDS011;11713;48.506;8.966;2023-02-01T01:55:35;2.43;;;2.00;;
23088;SDS011;11713;48.506;8.966;2023-02-01T01:58:08;2.13;;;1.87;;
23088;SDS011;11713;48.506;8.966;2023-02-01T02:00:38;3.07;;;2.10;;
23088;SDS011;11713;48.506;8.966;2023-02-01T02:03:47;3.90;;;2.20;;
23088;SDS011;11713;48.506;8.966;2023-02-01T02:05:53;2.93;;;1.90;;
23088;SDS011;11713;48.506;8.966;2023-02-01T02:08:23;2.43;;;2.07;;
23088;SDS011;11713;48.506;8.966;2023-02-01T02:10:51;3.87;;;2.10;;
23088;SDS011;11713;48.506;8.966;2023-02-01T02:14:00;3.40;;;2.53;;
23088;SDS011;11713;48.506;8.966;2023-02-01T02:27:46;3.03;;;2.20;;
23088;SDS011;11713;48.506;8.966;2023-02-01T02:38:46;2.07;;;1.87;;
23088;SDS011;11713;48.506;8.966;2023-02-01T02:44:05;3.00;;;2.43;;
23088;SDS011;11713;48.506;8.966;2023-02-01T02:46:59;3.57;;;2.00;;
23088;SDS011;11713;48.506;8.966;2023-02-01T02:49:49;2.53;;;2.30;;
23088;SDS011;11713;48.506;8.966;2023-02-01T02:52:44;2.50;;;2.00;;
23088;SDS011;11713;48.506;8.966;2023-02-01T02:55:35;2.30;;;2.10;;
23088;SDS011;11713;48.506;8.966;2023-02-01T02:58:04;2.60;;;2.33;;
23088;SDS011;11713;48.506;8.966;2023-02-01T03:00:50;2.57;;;2.17;;
23088;SDS011;11713;48.506;8.966;2023-02-01T03:03:39;2.80;;;2.33;;
23088;SDS011;11713;48.506;8.966;2023-02-01T03:06:24;2.70;;;2.30;;
23088;SDS011;11713;48.506;8.966;2023-02-01T03:08:50;2.50;;;2.00;;
23088;SDS011;11713;48.506;8.966;2023-02-01T03:11:19;3.03;;;2.23;;
23088;SDS011;11713;48.506;8.966;2023-02-01T03:13:59;2.60;;;2.00;;
23088;SDS011;11713;48.506;8.966;2023-02-01T03:16:34;2.87;;;2.20;;
23088;SDS011;11713;48.506;8.966;2023-02-01T03:19:08;2.57;;;2.27;;
23088;SDS011;11713;48.506;8.966;2023-02-01T03:21:53;2.53;;;2.00;;
23088;SDS011;11713;48.506;8.966;2023-02-01T03:27:21;2.90;;;2.33;;
23088;SDS011;11713;48.506;8.966;2023-02-01T03:29:51;2.40;;;2.10;;
23088;SDS011;11713;48.506;8.966;2023-02-01T03:32:24;2.33;;;2.10;;
23088;SDS011;11713;48.506;8.966;2023-02-01T03:34:50;3.30;;;2.40;;
23088;SDS011;11713;48.506;8.966;2023-02-01T03:37:22;2.93;;;2.60;;
23088;SDS011;11713;48.506;8.966;2023-02-01T03:40:02;3.23;;;2.23;;
23088;SDS011;11713;48.506;8.966;2023-02-01T03:42:47;3.27;;;2.33;;
23088;SDS011;11713;48.506;8.966;2023-02-01T03:47:54;3.73;;;2.53;;
23088;SDS011;11713;48.506;8.966;2023-02-01T03:50:25;3.83;;;2.90;;
23088;SDS011;11713;48.506;8.966;2023-02-01T03:52:57;4.83;;;2.63;;
23088;SDS011;11713;48.506;8.966;2023-02-01T03:55:29;4.00;;;2.73;;
23088;SDS011;11713;48.506;8.966;2023-02-01T04:00:31;2.73;;;2.43;;
23088;SDS011;11713;48.506;8.966;2023-02-01T04:02:57;3.07;;;2.70;;
23088;SDS011;11713;48.506;8.966;2023-02-01T04:05:24;5.53;;;3.00;;
23088;SDS011;11713;48.506;8.966;2023-02-01T04:07:57;3.60;;;2.20;;
23088;SDS011;11713;48.506;8.966;2023-02-01T04:10:23;4.27;;;2.97;;
23088;SDS011;11713;48.506;8.966;2023-02-01T04:12:49;5.83;;;2.83;;
23088;SDS011;11713;48.506;8.966;2023-02-01T04:15:15;4.20;;;3.00;;
23088;SDS011;11713;48.506;8.966;2023-02-01T04:17:41;6.73;;;4.10;;
23088;SDS011;11713;48.506;8.966;2023-02-01T04:20:07;5.93;;;4.40;;
23088;SDS011;11713;48.506;8.966;2023-02-01T04:22:34;6.07;;;4.03;;
23088;SDS011;11713;48.506;8.966;2023-02-01T04:25:00;5.03;;;3.07;;
23088;SDS011;11713;48.506;8.966;2023-02-01T04:27:25;4.87;;;2.83;;
23088;SDS011;11713;48.506;8.966;2023-02-01T04:29:51;4.67;;;3.03;;
23088;SDS011;11713;48.506;8.966;2023-02-01T04:32:17;4.80;;;3.20;;
23088;SDS011;11713;48.506;8.966;2023-02-01T04:34:45;10.43;;;5.50;;
23088;SDS011;11713;48.506;8.966;2023-02-01T04:37:11;7.97;;;4.03;;
23088;SDS011;11713;48.506;8.966;2023-02-01T04:39:37;7.67;;;4.93;;
23088;SDS011;11713;48.506;8.966;2023-02-01T04:42:03;3.30;;;2.63;;
23088;SDS011;11713;48.506;8.966;2023-02-01T04:44:29;2.87;;;2.30;;
23088;SDS011;11713;48.506;8.966;2023-02-01T04:46:54;2.93;;;2.30;;
23088;SDS011;11713;48.506;8.966;2023-02-01T04:49:20;3.93;;;2.70;;
23088;SDS011;11713;48.506;8.966;2023-02-01T04:51:46;4.67;;;2.90;;
23088;SDS011;11713;48.506;8.966;2023-02-01T04:54:13;3.60;;;2.70;;
23088;SDS011;11713;48.506;8.966;2023-02-01T04:56:39;8.23;;;4.40;;
23088;SDS011;11713;48.506;8.966;2023-02-01T04:59:05;3.90;;;2.77;;
23088;SDS011;11713;48.506;8.966;2023-02-01T05:01:31;4.67;;;4.10;;
23088;SDS011;11713;48.506;8.966;2023-02-01T05:03:57;4.97;;;2.70;;
23088;SDS011;11713;48.506;8.966;2023-02-01T05:06:23;13.47;;;6.63;;
23088;SDS011;11713;48.506;8.966;2023-02-01T05:08:49;14.10;;;6.73;;
23088;SDS011;11713;48.506;8.966;2023-02-01T05:11:15;10.33;;;5.83;;
23088;SDS011;11713;48.506;8.966;2023-02-01T05:14:00;11.40;;;6.70;;
23088;SDS011;11713;48.506;8.966;2023-02-01T05:16:26;6.13;;;4.27;;
23088;SDS011;11713;48.506;8.966;2023-02-01T05:18:52;7.53;;;5.00;;
23088;SDS011;11713;48.506;8.966;2023-02-01T05:21:18;7.70;;;4.67;;
23088;SDS011;11713;48.506;8.966;2023-02-01T05:23:44;10.63;;;5.00;;
23088;SDS011;11713;48.506;8.966;2023-02-01T05:26:28;12.80;;;7.10;;
23088;SDS011;11713;48.506;8.966;2023-02-01T05:28:57;9.23;;;5.73;;
23088;SDS011;11713;48.506;8.966;2023-02-01T05:31:23;10.20;;;5.97;;
23088;SDS011;11713;48.506;8.966;2023-02-01T05:33:49;8.03;;;5.03;;
23088;SDS011;11713;48.506;8.966;2023-02-01T05:36:14;5.37;;;3.43;;
23088;SDS011;11713;48.506;8.966;2023-02-01T05:38:40;6.03;;;3.83;;
23088;SDS011;11713;48.506;8.966;2023-02-01T05:41:07;5.83;;;2.50;;
23088;SDS011;11713;48.506;8.966;2023-02-01T05:43:32;4.97;;;3.13;;
23088;SDS011;11713;48.506;8.966;2023-02-01T05:45:58;6.67;;;3.30;;
23088;SDS011;11713;48.506;8.966;2023-02-01T05:48:24;5.90;;;3.30;;
23088;SDS011;11713;48.506;8.966;2023-02-01T05:50:50;4.30;;;2.60;;
23088;SDS011;11713;48.506;8.966;2023-02-01T05:53:16;2.83;;;2.23;;
23088;SDS011;11713;48.506;8.966;2023-02-01T05:55:41;4.00;;;2.10;;
23088;SDS011;11713;48.506;8.966;2023-02-01T05:58:07;2.13;;;1.70;;
23088;SDS011;11713;48.506;8.966;2023-02-01T06:00:33;2.03;;;1.80;;
23088;SDS011;11713;48.506;8.966;2023-02-01T06:02:59;2.43;;;1.93;;
23088;SDS011;11713;48.506;8.966;2023-02-01T06:05:25;2.77;;;1.97;;
23088;SDS011;11713;48.506;8.966;2023-02-01T06:07:50;2.53;;;2.07;;
23088;SDS011;11713;48.506;8.966;2023-02-01T06:10:17;2.43;;;1.60;;
23088;SDS011;11713;48.506;8.966;2023-02-01T06:12:43;3.10;;;2.43;;
23088;SDS011;11713;48.506;8.966;2023-02-01T06:15:10;1.93;;;1.73;;
23088;SDS011;11713;48.506;8.966;2023-02-01T06:17:36;3.33;;;1.83;;
23088;SDS011;11713;48.506;8.966;2023-02-01T06:20:03;3.60;;;2.77;;
23088;SDS011;11713;48.506;8.966;2023-02-01T06:22:31;2.90;;;1.93;;
23088;SDS011;11713;48.506;8.966;2023-02-01T06:24:57;2.20;;;1.93;;
23088;SDS011;11713;48.506;8.966;2023-02-01T06:27:26;2.40;;;2.00;;
23088;SDS011;11713;48.506;8.966;2023-02-01T06:29:53;1.80;;;1.60;;
23088;SDS011;11713;48.506;8.966;2023-02-01T06:32:20;2.50;;;1.70;;
23088;SDS011;11713;48.506;8.966;2023-02-01T06:34:48;3.53;;;2.20;;
23088;SDS011;11713;48.506;8.966;2023-02-01T06:37:13;3.17;;;2.00;;
23088;SDS011;11713;48.506;8.966;2023-02-01T06:39:39;3.77;;;2.27;;
23088;SDS011;11713;48.506;8.966;2023-02-01T06:42:05;4.40;;;2.33;;
23088;SDS011;11713;48.506;8.966;2023-02-01T06:44:31;3.17;;;2.53;;
23088;SDS011;11713;48.506;8.966;2023-02-01T06:46:56;4.77;;;2.50;;
23088;SDS011;11713;48.506;8.966;2023-02-01T06:49:22;3.20;;;2.90;;
23088;SDS011;11713;48.506;8.966;2023-02-01T06:51:48;4.93;;;2.57;;
23088;SDS011;11713;48.506;8.966;2023-02-01T06:54:14;2.30;;;2.00;;
23088;SDS011;11713;48.506;8.966;2023-02-01T06:56:40;4.23;;;2.30;;
23088;SDS011;11713;48.506;8.966;2023-02-01T06:59:06;3.10;;;2.03;;
23088;SDS011;11713;48.506;8.966;2023-02-01T07:01:32;4.27;;;2.70;;
23088;SDS011;11713;48.506;8.966;2023-02-01T07:03:58;3.00;;;2.53;;
23088;SDS011;11713;48.506;8.966;2023-02-01T07:06:24;3.87;;;2.40;;
23088;SDS011;11713;48.506;8.966;2023-02-01T07:08:50;3.50;;;2.50;;
23088;SDS011;11713;48.506;8.966;2023-02-01T07:11:17;3.00;;;2.70;;
23088;SDS011;11713;48.506;8.966;2023-02-01T07:13:44;2.60;;;2.00;;
23088;SDS011;11713;48.506;8.966;2023-02-01T07:16:11;4.43;;;2.30;;
23088;SDS011;11713;48.506;8.966;2023-02-01T07:18:39;2.93;;;2.30;;
23088;SDS011;11713;48.506;8.966;2023-02-01T07:21:05;2.80;;;2.30;;
23088;SDS011;11713;48.506;8.966;2023-02-01T07:23:31;3.60;;;2.60;;
23088;SDS011;11713;48.506;8.966;2023-02-01T07:25:58;3.33;;;2.70;;
23088;SDS011;11713;48.506;8.966;2023-02-01T07:28:25;2.73;;;2.00;;
23088;SDS011;11713;48.506;8.966;2023-02-01T07:30:51;5.13;;;2.60;;
23088;SDS011;11713;48.506;8.966;2023-02-01T07:33:21;3.10;;;2.40;;
23088;SDS011;11713;48.506;8.966;2023-02-01T07:35:48;3.30;;;2.30;;
23088;SDS011;11713;48.506;8.966;2023-02-01T07:38:15;2.67;;;2.10;;
23088;SDS011;11713;48.506;8.966;2023-02-01T07:40:42;3.60;;;2.13;;
23088;SDS011;11713;48.506;8.966;2023-02-01T07:43:08;2.17;;;1.90;;
23088;SDS011;11713;48.506;8.966;2023-02-01T07:45:35;4.37;;;2.67;;
23088;SDS011;11713;48.506;8.966;2023-02-01T07:48:01;6.00;;;3.50;;
23088;SDS011;11713;48.506;8.966;2023-02-01T07:50:28;4.33;;;2.50;;
23088;SDS011;11713;48.506;8.966;2023-02-01T07:52:54;2.97;;;2.37;;
23088;SDS011;11713;48.506;8.966;2023-02-01T07:55:20;3.30;;;2.80;;
23088;SDS011;11713;48.506;8.966;2023-02-01T07:57:46;6.13;;;2.30;;
23088;SDS011;11713;48.506;8.966;2023-02-01T08:00:12;3.13;;;2.70;;
23088;SDS011;11713;48.506;8.966;2023-02-01T08:02:57;6.33;;;2.70;;
23088;SDS011;11713;48.506;8.966;2023-02-01T08:05:26;5.13;;;2.93;;
23088;SDS011;11713;48.506;8.966;2023-02-01T08:07:52;3.20;;;2.30;;
23088;SDS011;11713;48.506;8.966;2023-02-01T08:10:18;3.90;;;2.97;;
23088;SDS011;11713;48.506;8.966;2023-02-01T08:12:44;4.37;;;3.20;;
23088;SDS011;11713;48.506;8.966;2023-02-01T08:15:17;8.90;;;3.53;;
23088;SDS011;11713;48.506;8.966;2023-02-01T08:17:47;6.43;;;2.90;;
23088;SDS011;11713;48.506;8.966;2023-02-01T08:20:14;6.90;;;4.00;;
23088;SDS011;11713;48.506;8.966;2023-02-01T08:22:40;5.10;;;3.37;;
23088;SDS011;11713;48.506;8.966;2023-02-01T08:25:07;3.73;;;2.43;;
23088;SDS011;11713;48.506;8.966;2023-02-01T08:27:34;5.67;;;2.53;;
23088;SDS011;11713;48.506;8.966;2023-02-01T08:29:59;7.43;;;3.83;;
23088;SDS011;11713;48.506;8.966;2023-02-01T08:32:26;4.80;;;3.00;;
23088;SDS011;11713;48.506;8.966;2023-02-01T08:34:53;2.63;;;2.20;;
23088;SDS011;11713;48.506;8.966;2023-02-01T08:37:19;5.73;;;2.70;;
23088;SDS011;11713;48.506;8.966;2023-02-01T08:39:45;5.57;;;3.00;;
23088;SDS011;11713;48.506;8.966;2023-02-01T08:42:12;5.90;;;3.23;;
23088;SDS011;11713;48.506;8.966;2023-02-01T08:44:58;5.37;;;3.17;;
23088;SDS011;11713;48.506;8.966;2023-02-01T08:47:24;5.27;;;3.30;;
23088;SDS011;11713;48.506;8.966;2023-02-01T08:49:50;3.33;;;2.23;;
23088;SDS011;11713;48.506;8.966;2023-02-01T08:52:16;4.40;;;2.67;;
23088;SDS011;11713;48.506;8.966;2023-02-01T08:54:42;3.57;;;2.40;;
23088;SDS011;11713;48.506;8.966;2023-02-01T08:57:08;3.40;;;2.37;;
23088;SDS011;11713;48.506;8.966;2023-02-01T08:59:34;2.50;;;2.10;;
23088;SDS011;11713;48.506;8.966;2023-02-01T09:02:00;2.97;;;2.20;;
23088;SDS011;11713;48.506;8.966;2023-02-01T09:04:26;2.47;;;2.10;;
23088;SDS011;11713;48.506;8.966;2023-02-01T09:06:52;3.37;;;2.00;;
23088;SDS011;11713;48.506;8.966;2023-02-01T09:09:20;4.57;;;2.17;;
23088;SDS011;11713;48.506;8.966;2023-02-01T09:11:47;4.43;;;2.10;;
23088;SDS011;11713;48.506;8.966;2023-02-01T09:14:12;4.23;;;2.53;;
23088;SDS011;11713;48.506;8.966;2023-02-01T09:16:38;4.03;;;2.67;;
23088;SDS011;11713;48.506;8.966;2023-02-01T09:19:04;7.90;;;3.67;;
23088;SDS011;11713;48.506;8.966;2023-02-01T09:21:30;3.70;;;2.00;;
23088;SDS011;11713;48.506;8.966;2023-02-01T09:23:55;5.63;;;2.30;;
23088;SDS011;11713;48.506;8.966;2023-02-01T09:26:21;5.97;;;2.30;;
23088;SDS011;11713;48.506;8.966;2023-02-01T09:28:47;3.27;;;2.20;;
23088;SDS011;11713;48.506;8.966;2023-02-01T09:31:13;4.17;;;2.10;;
23088;SDS011;11713;48.506;8.966;2023-02-01T09:33:38;3.67;;;2.10;;
23088;SDS011;11713;48.506;8.966;2023-02-01T09:36:05;6.90;;;2.53;;
23088;SDS011;11713;48.506;8.966;2023-02-01T09:38:31;6.47;;;3.47;;
23088;SDS011;11713;48.506;8.966;2023-02-01T09:40:57;11.00;;;2.33;;
23088;SDS011;11713;48.506;8.966;2023-02-01T09:43:29;5.80;;;2.20;;
23088;SDS011;11713;48.506;8.966;2023-02-01T09:48:48;5.43;;;2.60;;
23088;SDS011;11713;48.506;8.966;2023-02-01T09:51:19;5.23;;;2.70;;
23088;SDS011;11713;48.506;8.966;2023-02-01T09:53:57;7.93;;;3.07;;
23088;SDS011;11713;48.506;8.966;2023-02-01T09:56:25;4.67;;;2.20;;
23088;SDS011;11713;48.506;8.966;2023-02-01T10:01:31;4.37;;;2.20;;
23088;SDS011;11713;48.506;8.966;2023-02-01T10:04:05;7.10;;;3.03;;
23088;SDS011;11713;48.506;8.966;2023-02-01T10:11:56;5.57;;;2.23;;
23088;SDS011;11713;48.506;8.966;2023-02-01T10:20:16;5.97;;;2.30;;
23088;SDS011;11713;48.506;8.966;2023-02-01T10:25:36;5.80;;;2.40;;
23088;SDS011;11713;48.506;8.966;2023-02-01T10:28:09;8.20;;;3.03;;
23088;SDS011;11713;48.506;8.966;2023-02-01T10:30:41;5.90;;;2.37;;
23088;SDS011;11713;48.506;8.966;2023-02-01T10:35:41;4.50;;;2.30;;
23088;SDS011;11713;48.506;8.966;2023-02-01T10:38:20;7.33;;;2.43;;
23088;SDS011;11713;48.506;8.966;2023-02-01T10:40:57;7.03;;;2.43;;
23088;SDS011;11713;48.506;8.966;2023-02-01T10:43:29;10.30;;;2.40;;
23088;SDS011;11713;48.506;8.966;2023-02-01T10:45:55;3.10;;;1.70;;
23088;SDS011;11713;48.506;8.966;2023-02-01T10:48:22;7.60;;;2.80;;
23088;SDS011;11713;48.506;8.966;2023-02-01T10:50:53;9.77;;;2.80;;
23088;SDS011;11713;48.506;8.966;2023-02-01T10:53:24;5.87;;;2.17;;
23088;SDS011;11713;48.506;8.966;2023-02-01T10:55:56;7.97;;;2.47;;
23088;SDS011;11713;48.506;8.966;2023-02-01T10:58:31;7.90;;;2.50;;
23088;SDS011;11713;48.506;8.966;2023-02-01T11:01:04;8.07;;;2.87;;
23088;SDS011;11713;48.506;8.966;2023-02-01T11:03:45;7.80;;;2.23;;
23088;SDS011;11713;48.506;8.966;2023-02-01T11:06:30;6.40;;;2.27;;
23088;SDS011;11713;48.506;8.966;2023-02-01T11:11:52;9.07;;;2.30;;
23088;SDS011;11713;48.506;8.966;2023-02-01T11:16:53;5.87;;;2.20;;
23088;SDS011;11713;48.506;8.966;2023-02-01T11:19:20;7.23;;;2.83;;
23088;SDS011;11713;48.506;8.966;2023-02-01T11:21:50;3.57;;;2.10;;
23088;SDS011;11713;48.506;8.966;2023-02-01T11:24:22;5.90;;;2.37;;
23088;SDS011;11713;48.506;8.966;2023-02-01T11:26:50;9.00;;;2.27;;
23088;SDS011;11713;48.506;8.966;2023-02-01T11:29:19;4.93;;;2.73;;
23088;SDS011;11713;48.506;8.966;2023-02-01T11:31:53;7.30;;;2.23;;
23088;SDS011;11713;48.506;8.966;2023-02-01T11:34:25;7.70;;;2.77;;
23088;SDS011;11713;48.506;8.966;2023-02-01T11:36:55;4.43;;;2.20;;
23088;SDS011;11713;48.506;8.966;2023-02-01T11:39:26;6.30;;;2.87;;
23088;SDS011;11713;48.506;8.966;2023-02-01T11:50:05;7.20;;;3.43;;
23088;SDS011;11713;48.506;8.966;2023-02-01T11:58:56;6.63;;;2.13;;
23088;SDS011;11713;48.506;8.966;2023-02-01T12:02:02;7.40;;;2.47;;
23088;SDS011;11713;48.506;8.966;2023-02-01T12:06:56;8.97;;;2.53;;
23088;SDS011;11713;48.506;8.966;2023-02-01T12:09:54;11.47;;;2.60;;
23088;SDS011;11713;48.506;8.966;2023-02-01T12:12:43;11.07;;;2.30;;
23088;SDS011;11713;48.506;8.966;2023-02-01T12:15:27;5.37;;;2.37;;
23088;SDS011;11713;48.506;8.966;2023-02-01T12:18:27;7.10;;;2.50;;
23088;SDS011;11713;48.506;8.966;2023-02-01T12:23:33;13.90;;;2.90;;
23088;SDS011;11713;48.506;8.966;2023-02-01T12:32:13;11.63;;;3.07;;
23088;SDS011;11713;48.506;8.966;2023-02-01T12:35:10;11.40;;;5.57;;
23088;SDS011;11713;48.506;8.966;2023-02-01T12:43:16;10.00;;;3.27;;
23088;SDS011;11713;48.506;8.966;2023-02-01T12:48:25;18.73;;;7.43;;
23088;SDS011;11713;48.506;8.966;2023-02-01T12:51:15;8.70;;;3.77;;
23088;SDS011;11713;48.506;8.966;2023-02-01T12:56:22;7.07;;;2.60;;
23088;SDS011;11713;48.506;8.966;2023-02-01T12:58:52;9.30;;;2.27;;
23088;SDS011;11713;48.506;8.966;2023-02-01T13:01:33;6.17;;;2.43;;
23088;SDS011;11713;48.506;8.966;2023-02-01T13:06:55;9.77;;;2.50;;
23088;SDS011;11713;48.506;8.966;2023-02-01T13:09:32;7.97;;;2.50;;
23088;SDS011;11713;48.506;8.966;2023-02-01T13:12:06;4.97;;;1.97;;
23088;SDS011;11713;48.506;8.966;2023-02-01T13:15:01;7.90;;;2.70;;
23088;SDS011;11713;48.506;8.966;2023-02-01T13:17:38;9.13;;;2.47;;
23088;SDS011;11713;48.506;8.966;2023-02-01T13:20:53;6.30;;;2.20;;
23088;SDS011;11713;48.506;8.966;2023-02-01T13:23:00;6.67;;;2.27;;
23088;SDS011;11713;48.506;8.966;2023-02-01T13:25:49;6.40;;;2.30;;
23088;SDS011;11713;48.506;8.966;2023-02-01T13:28:17;5.93;;;2.23;;
23088;SDS011;11713;48.506;8.966;2023-02-01T13:43:01;6.63;;;2.77;;
23088;SDS011;11713;48.506;8.966;2023-02-01T13:45:17;8.93;;;2.63;;
23088;SDS011;11713;48.506;8.966;2023-02-01T13:47:48;8.27;;;3.03;;
23088;SDS011;11713;48.506;8.966;2023-02-01T13:52:53;5.87;;;2.30;;
23088;SDS011;11713;48.506;8.966;2023-02-01T13:57:47;7.50;;;2.43;;
23088;SDS011;11713;48.506;8.966;2023-02-01T14:13:29;10.00;;;3.43;;
23088;SDS011;11713;48.506;8.966;2023-02-01T14:26:19;6.60;;;2.87;;
23088;SDS011;11713;48.506;8.966;2023-02-01T14:34:52;7.80;;;2.50;;
23088;SDS011;11713;48.506;8.966;2023-02-01T14:37:09;13.73;;;2.73;;
23088;SDS011;11713;48.506;8.966;2023-02-01T14:42:19;7.43;;;2.70;;
23088;SDS011;11713;48.506;8.966;2023-02-01T14:44:52;9.77;;;2.90;;
23088;SDS011;11713;48.506;8.966;2023-02-01T14:49:55;9.03;;;2.80;;
23088;SDS011;11713;48.506;8.966;2023-02-01T14:52:49;10.03;;;2.70;;
23088;SDS011;11713;48.506;8.966;2023-02-01T14:55:59;14.27;;;2.97;;
23088;SDS011;11713;48.506;8.966;2023-02-01T15:00:56;10.30;;;2.87;;
23088;SDS011;11713;48.506;8.966;2023-02-01T15:05:57;5.83;;;2.93;;
23088;SDS011;11713;48.506;8.966;2023-02-01T15:08:33;10.43;;;3.30;;
23088;SDS011;11713;48.506;8.966;2023-02-01T15:11:05;8.57;;;2.27;;
23088;SDS011;11713;48.506;8.966;2023-02-01T15:13:36;24.23;;;14.70;;
23088;SDS011;11713;48.506;8.966;2023-02-01T15:16:02;7.83;;;3.67;;
23088;SDS011;11713;48.506;8.966;2023-02-01T15:18:28;9.23;;;4.40;;
23088;SDS011;11713;48.506;8.966;2023-02-01T15:20:58;10.00;;;3.30;;
23088;SDS011;11713;48.506;8.966;2023-02-01T15:23:25;12.60;;;3.40;;
23088;SDS011;11713;48.506;8.966;2023-02-01T15:25:52;8.80;;;3.30;;
23088;SDS011;11713;48.506;8.966;2023-02-01T15:28:20;9.57;;;3.20;;
23088;SDS011;11713;48.506;8.966;2023-02-01T15:30:57;10.50;;;3.17;;
23088;SDS011;11713;48.506;8.966;2023-02-01T15:33:25;9.00;;;3.00;;
23088;SDS011;11713;48.506;8.966;2023-02-01T15:35:56;7.90;;;2.80;;
23088;SDS011;11713;48.506;8.966;2023-02-01T15:38:37;10.97;;;2.80;;
23088;SDS011;11713;48.506;8.966;2023-02-01T15:41:06;7.90;;;2.97;;
23088;SDS011;11713;48.506;8.966;2023-02-01T15:43:37;8.37;;;3.10;;
23088;SDS011;11713;48.506;8.966;2023-02-01T15:46:06;5.87;;;2.60;;
23088;SDS011;11713;48.506;8.966;2023-02-01T15:48:43;8.47;;;2.70;;
23088;SDS011;11713;48.506;8.966;2023-02-01T15:51:12;12.00;;;3.07;;
23088;SDS011;11713;48.506;8.966;2023-02-01T15:53:59;8.00;;;3.23;;
23088;SDS011;11713;48.506;8.966;2023-02-01T15:56:34;9.57;;;2.97;;
23088;SDS011;11713;48.506;8.966;2023-02-01T15:59:12;14.00;;;4.07;;
23088;SDS011;11713;48.506;8.966;2023-02-01T16:01:41;11.10;;;4.80;;
23088;SDS011;11713;48.506;8.966;2023-02-01T16:06:48;9.73;;;2.97;;
23088;SDS011;11713;48.506;8.966;2023-02-01T16:09:19;11.43;;;2.57;;
23088;SDS011;11713;48.506;8.966;2023-02-01T16:14:21;8.63;;;2.90;;
23088;SDS011;11713;48.506;8.966;2023-02-01T16:16:47;8.63;;;3.00;;
23088;SDS011;11713;48.506;8.966;2023-02-01T16:19:13;10.33;;;3.50;;
23088;SDS011;11713;48.506;8.966;2023-02-01T16:21:39;8.03;;;3.20;;
23088;SDS011;11713;48.506;8.966;2023-02-01T16:24:05;10.27;;;3.07;;
23088;SDS011;11713;48.506;8.966;2023-02-01T16:26:31;13.37;;;3.30;;
23088;SDS011;11713;48.506;8.966;2023-02-01T16:28:58;9.30;;;3.30;;
23088;SDS011;11713;48.506;8.966;2023-02-01T16:31:27;10.20;;;3.57;;
23088;SDS011;11713;48.506;8.966;2023-02-01T16:33:55;11.27;;;2.70;;
23088;SDS011;11713;48.506;8.966;2023-02-01T16:36:21;13.27;;;3.53;;
23088;SDS011;11713;48.506;8.966;2023-02-01T16:38:47;6.97;;;3.30;;
23088;SDS011;11713;48.506;8.966;2023-02-01T16:41:15;10.67;;;3.20;;
23088;SDS011;11713;48.506;8.966;2023-02-01T16:43:43;11.87;;;3.50;;
23088;SDS011;11713;48.506;8.966;2023-02-01T16:46:13;9.43;;;3.83;;
23088;SDS011;11713;48.506;8.966;2023-02-01T16:48:41;10.10;;;4.13;;
23088;SDS011;11713;48.506;8.966;2023-02-01T16:51:12;10.63;;;4.23;;
23088;SDS011;11713;48.506;8.966;2023-02-01T16:53:41;11.33;;;4.37;;
23088;SDS011;11713;48.506;8.966;2023-02-01T16:56:11;11.10;;;4.40;;
23088;SDS011;11713;48.506;8.966;2023-02-01T16:58:48;7.17;;;2.77;;
23088;SDS011;11713;48.506;8.966;2023-02-01T17:01:17;8.27;;;4.00;;
23088;SDS011;11713;48.506;8.966;2023-02-01T17:03:44;15.27;;;5.37;;
23088;SDS011;11713;48.506;8.966;2023-02-01T17:06:12;9.60;;;3.40;;
23088;SDS011;11713;48.506;8.966;2023-02-01T17:08:40;7.60;;;3.30;;
23088;SDS011;11713;48.506;8.966;2023-02-01T17:11:08;9.47;;;3.50;;
23088;SDS011;11713;48.506;8.966;2023-02-01T17:13:37;6.23;;;2.70;;
23088;SDS011;11713;48.506;8.966;2023-02-01T17:18:55;7.50;;;3.53;;
23088;SDS011;11713;48.506;8.966;2023-02-01T17:21:27;10.60;;;3.50;;
23088;SDS011;11713;48.506;8.966;2023-02-01T17:23:55;8.90;;;3.27;;
23088;SDS011;11713;48.506;8.966;2023-02-01T17:26:24;9.17;;;4.30;;
23088;SDS011;11713;48.506;8.966;2023-02-01T17:28:50;8.77;;;4.13;;
23088;SDS011;11713;48.506;8.966;2023-02-01T17:31:15;16.40;;;5.20;;
23088;SDS011;11713;48.506;8.966;2023-02-01T17:33:42;9.07;;;3.27;;
23088;SDS011;11713;48.506;8.966;2023-02-01T17:36:10;17.03;;;5.13;;
23088;SDS011;11713;48.506;8.966;2023-02-01T17:38:38;10.53;;;4.47;;
23088;SDS011;11713;48.506;8.966;2023-02-01T17:41:04;11.80;;;4.77;;
23088;SDS011;11713;48.506;8.966;2023-02-01T17:43:30;11.87;;;5.40;;
23088;SDS011;11713;48.506;8.966;2023-02-01T17:46:15;13.00;;;4.13;;